Time;durP1;ratioP1;P1;durP2;ratioP2;P2;SDS_P1;SDS_P2;PMS_P1;PMS_P2;Temp;Humidity;BMP_temperature;BMP_pressure;BME280_temperature;BME280_humidity;BME280_pressure;Samples;Min_cycle;Max_cycle;Signal;HPM_P1;HPM_P2
2022/06/22 00:01:11;;;;;;;4.40;3.53;;;28.40;44.00;;;;;;8463664;28;20060;-44
2022/06/22 00:05:17;;;;;;;4.57;3.55;;;28.40;43.90;;;;;;8462963;28;20027;-44
2022/06/22 00:09:27;;;;;;;3.83;2.63;;;28.40;43.30;;;;;;8463182;28;20619;-44
2022/06/22 00:13:30;;;;;;;3.75;2.67;;;28.40;43.40;;;;;;8463023;28;20044;-43
2022/06/22 00:17:37;;;;;;;6.20;2.70;;;28.40;43.30;;;;;;8463155;28;20123;-44
2022/06/22 00:21:40;;;;;;;4.00;2.97;;;28.40;43.30;;;;;;8463041;28;20036;-44
2022/06/22 00:25:41;;;;;;;6.10;3.67;;;28.40;43.30;;;;;;8462953;28;20036;-43
2022/06/22 00:29:45;;;;;;;3.75;2.60;;;28.40;43.30;;;;;;8463612;28;20027;-43
2022/06/22 00:34:21;;;;;;;5.28;3.13;;;28.30;43.20;;;;;;8463272;28;20396;-45
2022/06/22 00:38:31;;;;;;;3.45;2.65;;;28.30;43.20;;;;;;8448571;28;20136;-43
2022/06/22 00:42:39;;;;;;;2.92;2.63;;;28.30;43.30;;;;;;8462649;28;20039;-44
2022/06/22 00:46:43;;;;;;;3.33;2.58;;;28.30;43.20;;;;;;8462269;28;20061;-44
2022/06/22 00:50:48;;;;;;;3.95;2.60;;;28.30;43.20;;;;;;8462876;28;20032;-43
2022/06/22 00:54:49;;;;;;;4.45;2.72;;;28.30;43.10;;;;;;8462923;28;20035;-45
2022/06/22 00:59:06;;;;;;;3.75;3.08;;;28.30;43.10;;;;;;8462391;28;20074;-44
2022/06/22 01:03:22;;;;;;;4.10;2.63;;;28.30;43.10;;;;;;8462477;28;20492;-44
2022/06/22 01:07:35;;;;;;;3.03;2.53;;;28.30;43.10;;;;;;8461107;28;20577;-44
2022/06/22 01:16:21;;;;;;;3.28;2.70;;;28.20;43.00;;;;;;8462210;28;20561;-44
2022/06/22 01:20:44;;;;;;;3.90;2.58;;;28.20;43.00;;;;;;8461870;28;20050;-45
2022/06/22 01:25:29;;;;;;;3.03;2.50;;;28.20;43.60;;;;;;8468799;28;20062;-44
2022/06/22 01:29:30;;;;;;;3.03;2.42;;;28.20;43.00;;;;;;8434438;28;20032;-43
2022/06/22 01:33:36;;;;;;;2.80;2.40;;;28.20;43.60;;;;;;8462535;28;20038;-44
2022/06/22 01:37:37;;;;;;;3.47;2.72;;;28.20;43.00;;;;;;8467389;28;20050;-44
2022/06/22 01:41:46;;;;;;;3.92;2.65;;;28.20;43.00;;;;;;8467832;28;20488;-44
2022/06/22 01:45:53;;;;;;;4.68;2.70;;;28.20;43.00;;;;;;8467871;28;20043;-44
2022/06/22 01:50:11;;;;;;;3.55;2.72;;;28.20;43.00;;;;;;8467299;27;20028;-45
2022/06/22 01:54:22;;;;;;;5.45;2.63;;;28.10;42.90;;;;;;8467616;27;20039;-44
2022/06/22 01:58:38;;;;;;;3.30;2.80;;;28.10;42.90;;;;;;8466724;27;20245;-44
2022/06/22 02:02:52;;;;;;;4.13;2.30;;;28.10;43.00;;;;;;8467333;28;20265;-44
2022/06/22 02:11:29;;;;;;;3.50;2.67;;;28.10;42.90;;;;;;8466645;28;20046;-44
2022/06/22 02:15:44;;;;;;;2.60;2.40;;;28.10;43.00;;;;;;8466968;28;20027;-43
2022/06/22 02:20:04;;;;;;;3.65;2.42;;;28.10;43.00;;;;;;8466379;27;20031;-44
2022/06/22 02:24:17;;;;;;;5.43;2.00;;;28.10;43.00;;;;;;8466674;28;20040;-43
2022/06/22 02:28:18;;;;;;;2.97;2.25;;;28.10;43.00;;;;;;8466093;28;20142;-44
2022/06/22 02:32:22;;;;;;;4.47;2.50;;;28.10;43.00;;;;;;8465805;28;20031;-44
2022/06/22 02:36:27;;;;;;;3.42;2.47;;;28.10;43.00;;;;;;8466142;28;20067;-44
2022/06/22 02:40:30;;;;;;;4.07;2.38;;;28.00;42.90;;;;;;8465785;28;20511;-44
2022/06/22 02:44:33;;;;;;;5.32;2.67;;;28.00;42.90;;;;;;8465994;27;20038;-43
2022/06/22 02:48:37;;;;;;;3.30;2.40;;;28.00;42.90;;;;;;8465984;28;20036;-43
2022/06/22 02:52:42;;;;;;;4.05;2.30;;;28.00;43.00;;;;;;8465209;28;20114;-44
2022/06/22 02:56:56;;;;;;;3.65;2.60;;;28.00;43.00;;;;;;8465427;28;20040;-44
2022/06/22 03:01:00;;;;;;;5.03;2.47;;;28.00;43.00;;;;;;8465442;27;20034;-44
2022/06/22 03:05:01;;;;;;;2.80;2.33;;;28.00;43.00;;;;;;8464992;28;20484;-44
2022/06/22 03:09:04;;;;;;;3.00;2.15;;;28.00;43.00;;;;;;8465355;28;20042;-44
2022/06/22 03:13:05;;;;;;;3.10;2.70;;;28.00;43.00;;;;;;8465036;28;20388;-44
2022/06/22 03:17:14;;;;;;;3.00;2.67;;;28.00;43.00;;;;;;8464378;28;20047;-44
2022/06/22 03:21:14;;;;;;;3.30;2.35;;;28.00;43.00;;;;;;8464834;28;20039;-44
2022/06/22 03:25:31;;;;;;;3.17;2.05;;;28.00;43.10;;;;;;8464541;28;20376;-44
2022/06/22 03:29:46;;;;;;;3.05;2.42;;;27.90;43.00;;;;;;8464735;27;20122;-43
2022/06/22 03:33:56;;;;;;;3.22;2.35;;;27.90;43.10;;;;;;8464821;28;20035;-43
2022/06/22 03:38:13;;;;;;;2.83;2.42;;;27.90;43.10;;;;;;8463741;28;20062;-44
2022/06/22 03:42:21;;;;;;;5.45;2.38;;;27.90;43.10;;;;;;8464079;28;20040;-44
2022/06/22 03:46:29;;;;;;;3.78;2.35;;;27.90;43.10;;;;;;8462800;28;20070;-44
2022/06/22 03:50:41;;;;;;;2.97;2.28;;;27.90;43.10;;;;;;8464367;28;20024;-44
2022/06/22 03:55:00;;;;;;;3.88;2.55;;;27.90;43.10;;;;;;8463839;28;20035;-43
2022/06/22 03:59:04;;;;;;;4.65;2.42;;;27.90;43.10;;;;;;8461929;28;20093;-43
2022/06/22 04:03:06;;;;;;;3.40;2.55;;;27.80;43.10;;;;;;8462620;28;20051;-44
2022/06/22 04:07:14;;;;;;;3.35;2.67;;;27.90;43.10;;;;;;8463446;28;20523;-43
2022/06/22 04:11:26;;;;;;;3.85;2.40;;;27.80;43.10;;;;;;8463265;28;20028;-43
2022/06/22 04:15:33;;;;;;;3.40;2.20;;;27.80;43.10;;;;;;8463650;28;20031;-44
2022/06/22 04:19:48;;;;;;;4.43;2.17;;;27.80;43.10;;;;;;8462703;28;20047;-44
2022/06/22 04:23:51;;;;;;;2.88;2.08;;;27.80;43.20;;;;;;8463119;28;20063;-43
2022/06/22 04:27:54;;;;;;;2.75;2.33;;;27.80;43.10;;;;;;8463189;28;20055;-44
2022/06/22 04:32:14;;;;;;;4.15;2.67;;;27.80;43.20;;;;;;8462499;28;20032;-45
2022/06/22 04:36:23;;;;;;;3.60;2.20;;;27.80;43.20;;;;;;8463309;28;20085;-44
2022/06/22 04:40:50;;;;;;;3.60;2.15;;;27.80;43.20;;;;;;8462440;28;20511;-44
2022/06/22 04:44:51;;;;;;;3.60;2.55;;;27.80;43.20;;;;;;8463084;28;20551;-44
2022/06/22 04:48:54;;;;;;;3.58;2.60;;;27.70;43.20;;;;;;8462848;28;20120;-44
2022/06/22 04:52:59;;;;;;;3.13;2.20;;;27.80;43.20;;;;;;8462044;28;20123;-43
2022/06/22 04:57:05;;;;;;;3.55;2.85;;;27.70;43.20;;;;;;8466766;28;20131;-44
2022/06/22 05:01:10;;;;;;;3.13;1.95;;;27.70;43.20;;;;;;8469420;28;20035;-44
2022/06/22 05:05:17;;;;;;;2.75;2.33;;;27.70;43.20;;;;;;8468641;27;20492;-45
2022/06/22 05:09:26;;;;;;;2.30;2.10;;;27.70;43.20;;;;;;8469039;28;20036;-43
2022/06/22 05:13:32;;;;;;;3.47;2.55;;;27.70;43.20;;;;;;8468451;28;20035;-43
2022/06/22 05:17:35;;;;;;;3.60;2.42;;;27.70;43.20;;;;;;8468635;28;20050;-43
2022/06/22 05:21:43;;;;;;;2.75;2.45;;;27.70;43.30;;;;;;8468725;28;20031;-44
2022/06/22 05:25:48;;;;;;;3.25;2.10;;;27.70;43.20;;;;;;8468391;28;20381;-43
2022/06/22 05:29:54;;;;;;;2.42;2.20;;;27.70;43.30;;;;;;8468634;27;20039;-46
2022/06/22 05:34:00;;;;;;;3.13;2.65;;;27.70;43.30;;;;;;8468386;28;20070;-43
2022/06/22 05:38:03;;;;;;;2.63;2.42;;;27.70;43.30;;;;;;8467658;27;20062;-45
2022/06/22 05:42:04;;;;;;;4.03;1.95;;;27.60;43.20;;;;;;8467913;27;20035;-44
2022/06/22 05:46:06;;;;;;;3.10;2.40;;;27.60;43.20;;;;;;8467939;28;20441;-44
2022/06/22 05:50:43;;;;;;;2.63;2.30;;;27.60;43.20;;;;;;8467224;28;20036;-43
2022/06/22 05:54:54;;;;;;;3.55;2.00;;;27.60;43.20;;;;;;8467627;28;20032;-43
2022/06/22 05:59:12;;;;;;;4.13;2.03;;;27.60;43.20;;;;;;8467195;27;20082;-44
2022/06/22 06:03:26;;;;;;;2.40;2.15;;;27.60;43.30;;;;;;8467313;28;20031;-43
2022/06/22 06:07:33;;;;;;;3.55;2.50;;;27.60;43.20;;;;;;8465818;28;20039;-46
2022/06/22 06:11:44;;;;;;;3.83;1.88;;;27.60;43.30;;;;;;8467577;28;20031;-43
2022/06/22 06:15:46;;;;;;;4.35;2.50;;;27.60;43.20;;;;;;8466902;28;20075;-44
2022/06/22 06:19:52;;;;;;;2.65;2.45;;;27.60;43.20;;;;;;8466218;27;20032;-44
2022/06/22 06:24:01;;;;;;;2.95;2.70;;;27.60;43.20;;;;;;8466802;28;20118;-44
2022/06/22 06:28:09;;;;;;;2.80;2.45;;;27.60;43.10;;;;;;8466636;28;20043;-44
2022/06/22 06:32:18;;;;;;;2.30;2.10;;;27.60;43.10;;;;;;8466089;28;20032;-44
2022/06/22 06:36:31;;;;;;;3.30;2.40;;;27.60;43.10;;;;;;8466503;28;20389;-44
2022/06/22 06:40:47;;;;;;;3.33;2.58;;;27.60;43.10;;;;;;8464286;28;20070;-44
2022/06/22 06:44:50;;;;;;;2.38;1.98;;;27.60;43.10;;;;;;8465830;28;20039;-44
2022/06/22 06:49:10;;;;;;;3.05;2.20;;;27.60;43.20;;;;;;8465843;28;20485;-45
2022/06/22 06:53:28;;;;;;;2.87;2.43;;;27.60;43.10;;;;;;8465163;27;20047;-46
2022/06/22 06:57:30;;;;;;;2.83;2.15;;;27.60;43.10;;;;;;8465428;28;20404;-44
2022/06/22 07:01:35;;;;;;;3.50;2.63;;;27.60;43.20;;;;;;8465062;27;20027;-45
2022/06/22 07:05:35;;;;;;;3.55;2.38;;;27.60;43.20;;;;;;8465515;28;20035;-45
2022/06/22 07:09:38;;;;;;;3.17;2.72;;;27.60;43.20;;;;;;8460114;28;20035;-44
2022/06/22 07:13:53;;;;;;;4.97;2.45;;;27.60;43.20;;;;;;8440901;28;20031;-44
2022/06/22 07:17:59;;;;;;;3.13;2.40;;;27.60;43.20;;;;;;8465040;28;20035;-44
2022/06/22 07:22:09;;;;;;;3.08;2.30;;;27.60;43.20;;;;;;8465384;28;20046;-44
2022/06/22 07:26:28;;;;;;;3.15;2.55;;;27.60;43.20;;;;;;8464226;28;20031;-44
2022/06/22 07:30:55;;;;;;;3.03;2.30;;;27.50;43.20;;;;;;8464434;28;20043;-44
2022/06/22 07:35:15;;;;;;;2.58;2.38;;;27.60;43.30;;;;;;8463927;28;20042;-44
2022/06/22 07:39:29;;;;;;;4.32;2.55;;;27.50;43.20;;;;;;8464430;28;20047;-44
2022/06/22 07:43:32;;;;;;;3.92;2.38;;;27.50;43.30;;;;;;8463732;27;20542;-44
2022/06/22 07:47:41;;;;;;;3.40;2.10;;;27.50;43.30;;;;;;8464187;28;20047;-43
2022/06/22 07:51:50;;;;;;;3.33;2.60;;;27.50;43.30;;;;;;8463912;28;20443;-44
2022/06/22 07:56:24;;;;;;;3.97;2.70;;;27.50;43.30;;;;;;8463240;28;20035;-43
2022/06/22 08:00:26;;;;;;;3.28;2.50;;;27.50;43.30;;;;;;8464119;28;20039;-45
2022/06/22 08:04:36;;;;;;;2.92;2.22;;;27.50;43.30;;;;;;8463177;28;20023;-44
2022/06/22 08:08:52;;;;;;;4.60;2.25;;;27.50;43.30;;;;;;8463502;28;20035;-44
2022/06/22 08:12:57;;;;;;;3.72;2.35;;;27.50;43.30;;;;;;8463649;28;20124;-44
2022/06/22 08:17:01;;;;;;;2.92;2.10;;;27.50;43.30;;;;;;8462899;28;20044;-44
2022/06/22 08:21:02;;;;;;;3.65;2.55;;;27.50;43.30;;;;;;8463203;28;20126;-44
2022/06/22 08:25:04;;;;;;;3.75;2.60;;;27.50;43.30;;;;;;8463030;28;20036;-43
2022/06/22 08:29:05;;;;;;;3.10;2.80;;;27.50;43.30;;;;;;8462292;28;20369;-44
2022/06/22 08:33:07;;;;;;;;;;;27.50;43.40;;;;;;8463216;28;20028;-44
2022/06/22 08:37:15;;;;;;;3.17;2.50;;;27.50;43.40;;;;;;8462872;28;19916;-43
2022/06/22 08:41:43;;;;;;;4.57;2.83;;;27.50;43.40;;;;;;8462389;28;20396;-43
2022/06/22 08:46:23;;;;;;;3.65;2.53;;;27.50;43.40;;;;;;8462804;28;20081;-44
2022/06/22 08:50:44;;;;;;;2.83;2.47;;;27.40;43.40;;;;;;8438541;28;20403;-43
2022/06/22 08:54:59;;;;;;;3.15;2.83;;;27.50;43.40;;;;;;8462598;28;20476;-43
2022/06/22 08:59:09;;;;;;;3.42;2.60;;;27.40;43.40;;;;;;8462105;28;20048;-45
2022/06/22 09:03:39;;;;;;;3.63;2.80;;;27.50;43.50;;;;;;8462526;28;20074;-44
2022/06/22 09:08:08;;;;;;;2.70;2.45;;;27.50;43.50;;;;;;8428504;28;20036;-47
2022/06/22 09:12:56;;;;;;;4.93;3.13;;;27.40;43.40;;;;;;8461478;28;20039;-43
2022/06/22 09:17:36;;;;;;;2.90;2.58;;;27.40;43.50;;;;;;8427492;28;20047;-44
2022/06/22 09:22:14;;;;;;;3.67;2.60;;;27.40;43.50;;;;;;8462161;28;20055;-44
2022/06/22 09:26:41;;;;;;;3.15;2.53;;;27.40;43.50;;;;;;8461855;28;20625;-44
2022/06/22 09:31:18;;;;;;;4.45;2.90;;;27.40;43.50;;;;;;8462089;28;20528;-43
2022/06/22 09:35:50;;;;;;;4.10;2.70;;;27.40;43.60;;;;;;8461848;28;20092;-44
2022/06/22 09:40:06;;;;;;;2.95;2.65;;;27.40;43.50;;;;;;8461763;28;20442;-44
2022/06/22 09:44:26;;;;;;;4.85;2.97;;;27.40;43.60;;;;;;8465270;28;20031;-44
2022/06/22 09:48:55;;;;;;;3.58;2.78;;;27.40;43.60;;;;;;8468048;28;20034;-44
2022/06/22 09:53:28;;;;;;;3.17;2.67;;;27.40;43.60;;;;;;8467198;27;20043;-44
2022/06/22 09:57:46;;;;;;;4.72;3.00;;;27.40;43.60;;;;;;8432929;28;20548;-44
2022/06/22 10:01:55;;;;;;;4.72;2.78;;;27.40;43.60;;;;;;8465909;28;20173;-43
2022/06/22 10:06:15;;;;;;;3.88;2.90;;;27.50;43.60;;;;;;8466955;28;20042;-44
2022/06/22 10:10:51;;;;;;;4.07;3.00;;;27.50;43.70;;;;;;8466518;28;20104;-44
2022/06/22 10:15:04;;;;;;;3.20;2.67;;;27.50;43.50;;;;;;8466785;28;20043;-45
2022/06/22 10:19:37;;;;;;;3.70;2.58;;;27.50;43.50;;;;;;8466595;27;20078;-42
2022/06/22 10:24:01;;;;;;;5.60;3.35;;;27.50;43.50;;;;;;8466570;28;20492;-43
2022/06/22 10:28:27;;;;;;;3.95;2.70;;;27.50;43.50;;;;;;8432976;28;20093;-45
2022/06/22 10:33:01;;;;;;;4.38;2.67;;;27.50;43.50;;;;;;8463773;28;20059;-44
2022/06/22 10:37:04;;;;;;;3.38;2.70;;;27.50;43.50;;;;;;8465998;28;20056;-42
2022/06/22 10:45:48;;;;;;;2.88;2.45;;;27.50;43.50;;;;;;8465888;28;20078;-44
2022/06/22 10:50:13;;;;;;;2.95;2.42;;;27.50;43.40;;;;;;8465244;28;20058;-44
2022/06/22 10:54:39;;;;;;;3.13;2.75;;;27.50;43.50;;;;;;8465439;28;20058;-44
2022/06/22 10:58:58;;;;;;;3.22;2.72;;;27.50;43.40;;;;;;8465113;27;20036;-44
2022/06/22 11:03:20;;;;;;;3.83;2.97;;;27.50;43.40;;;;;;8465918;28;20032;-43
2022/06/22 11:07:28;;;;;;;3.67;2.75;;;27.50;43.40;;;;;;8464677;28;20035;-43
2022/06/22 11:11:41;;;;;;;3.38;3.00;;;27.50;43.50;;;;;;8464937;28;20046;-42
2022/06/22 11:15:52;;;;;;;4.70;3.17;;;27.50;43.50;;;;;;8464777;28;20039;-43
2022/06/22 11:20:24;;;;;;;3.72;2.92;;;27.60;43.50;;;;;;8464153;28;20038;-43
2022/06/22 11:24:40;;;;;;;6.03;3.33;;;27.60;43.50;;;;;;8464479;28;20065;-43
2022/06/22 11:33:58;;;;;;;6.15;3.25;;;27.60;43.40;;;;;;8464723;28;20499;-44
2022/06/22 11:38:21;;;;;;;4.53;2.85;;;27.60;43.40;;;;;;8434734;28;20067;-44
2022/06/22 11:42:49;;;;;;;5.35;3.05;;;27.60;43.40;;;;;;8464395;28;20051;-45
2022/06/22 11:46:55;;;;;;;5.35;3.10;;;27.60;43.30;;;;;;8463759;28;20032;-44
2022/06/22 11:51:35;;;;;;;5.28;3.45;;;27.70;43.40;;;;;;8463907;28;20032;-45
2022/06/22 11:55:41;;;;;;;3.50;3.05;;;27.60;43.30;;;;;;8439943;28;20031;-44
2022/06/22 11:59:57;;;;;;;4.50;3.10;;;27.70;43.30;;;;;;8464092;28;20043;-44
2022/06/22 12:04:12;;;;;;;3.47;3.08;;;27.70;43.40;;;;;;8464368;27;20403;-44
2022/06/22 12:08:22;;;;;;;4.60;3.55;;;27.70;43.40;;;;;;8462897;28;20040;-44
2022/06/22 12:13:05;;;;;;;4.65;3.00;;;27.70;43.40;;;;;;8463640;28;20028;-44
2022/06/22 12:17:36;;;;;;;3.60;2.78;;;27.70;43.30;;;;;;8462625;28;20480;-44
2022/06/22 12:21:50;;;;;;;;;;;27.70;43.30;;;;;;8463639;28;20085;-45
2022/06/22 12:26:39;;;;;;;3.85;2.72;;;27.70;43.30;;;;;;8462611;28;19923;-44
2022/06/22 12:30:46;;;;;;;4.68;2.65;;;27.70;43.30;;;;;;8449365;28;20073;-45
2022/06/22 12:35:00;;;;;;;3.70;3.22;;;27.70;43.30;;;;;;8462437;28;20096;-43
2022/06/22 12:39:24;;;;;;;4.43;3.20;;;27.70;43.30;;;;;;8463432;28;20056;-43
2022/06/22 12:43:43;;;;;;;3.40;2.92;;;27.70;43.30;;;;;;8462438;28;20032;-43
2022/06/22 12:47:43;;;;;;;3.92;3.25;;;27.70;43.30;;;;;;8462945;28;20067;-43
2022/06/22 12:52:15;;;;;;;5.93;3.03;;;27.70;43.30;;;;;;8462490;28;20023;-44
2022/06/22 12:56:25;;;;;;;4.35;2.83;;;27.70;43.30;;;;;;8462074;28;20043;-44
2022/06/22 13:00:26;;;;;;;3.42;2.95;;;27.70;43.30;;;;;;8462681;28;20054;-43
2022/06/22 13:04:32;;;;;;;4.78;3.28;;;27.70;43.40;;;;;;8462565;28;20043;-44
2022/06/22 13:08:32;;;;;;;3.88;3.00;;;27.70;43.40;;;;;;8462537;28;20038;-44
2022/06/22 13:12:53;;;;;;;3.72;3.13;;;27.70;43.40;;;;;;8460977;28;20039;-43
2022/06/22 13:17:11;;;;;;;3.95;3.00;;;27.70;43.40;;;;;;8464184;27;20074;-43
2022/06/22 13:21:25;;;;;;;4.40;3.65;;;27.60;43.40;;;;;;8468706;27;20035;-43
2022/06/22 13:25:54;;;;;;;4.70;2.90;;;27.70;43.40;;;;;;8468180;28;20495;-43
2022/06/22 13:30:24;;;;;;;4.63;3.10;;;27.70;43.40;;;;;;8468492;28;20039;-46
2022/06/22 13:34:32;;;;;;;3.90;3.28;;;27.70;43.40;;;;;;8467876;28;20043;-43
2022/06/22 13:39:03;;;;;;;4.18;3.10;;;27.70;43.40;;;;;;8468097;27;20051;-43
2022/06/22 13:43:35;;;;;;;4.82;3.25;;;27.70;43.40;;;;;;8467887;28;20155;-43
2022/06/22 13:48:13;;;;;;;4.93;3.33;;;27.70;43.60;;;;;;8467868;28;20377;-44
2022/06/22 13:52:38;;;;;;;4.80;2.80;;;27.70;43.40;;;;;;8467319;28;20047;-44
2022/06/22 13:57:09;;;;;;;3.35;2.90;;;27.80;43.40;;;;;;8467583;28;20079;-44
2022/06/22 14:01:25;;;;;;;3.72;2.72;;;27.70;43.30;;;;;;8467344;28;20044;-43
2022/06/22 14:05:33;;;;;;;4.72;2.85;;;27.80;43.40;;;;;;8467293;27;20045;-44
2022/06/22 14:09:51;;;;;;;4.85;2.78;;;27.80;43.30;;;;;;8467502;27;20115;-44
2022/06/22 14:14:15;;;;;;;3.45;3.15;;;27.80;43.30;;;;;;8466481;28;20035;-44
2022/06/22 14:18:49;;;;;;;5.75;3.22;;;27.80;43.40;;;;;;8466920;28;20096;-44
2022/06/22 14:22:57;;;;;;;5.28;2.97;;;27.80;43.30;;;;;;8452510;28;20059;-44
2022/06/22 14:27:06;;;;;;;4.97;3.13;;;27.80;43.20;;;;;;8466647;27;20044;-44
2022/06/22 14:31:13;;;;;;;7.07;3.45;;;27.90;43.30;;;;;;8466099;28;20032;-44
2022/06/22 14:35:37;;;;;;;4.13;3.22;;;27.90;43.20;;;;;;8466217;28;20031;-45
2022/06/22 14:39:43;;;;;;;4.93;2.80;;;27.90;43.20;;;;;;8466451;28;20051;-44
2022/06/22 14:43:50;;;;;;;4.05;3.13;;;27.90;43.20;;;;;;8465671;27;20084;-44
2022/06/22 14:48:00;;;;;;;5.22;3.40;;;27.90;43.20;;;;;;8465636;28;20052;-44
2022/06/22 14:52:05;;;;;;;5.97;3.07;;;27.90;43.10;;;;;;8465851;28;20036;-44
2022/06/22 14:56:20;;;;;;;3.85;3.20;;;28.00;43.20;;;;;;8464956;28;20065;-43
2022/06/22 15:01:03;;;;;;;4.22;3.08;;;28.00;43.20;;;;;;8465754;28;20451;-43
2022/06/22 15:05:58;;;;;;;3.55;3.10;;;28.00;43.70;;;;;;8435910;28;20032;-46
2022/06/22 15:10:16;;;;;;;3.58;2.70;;;27.90;43.10;;;;;;8397106;28;20396;-44
2022/06/22 15:14:23;;;;;;;6.43;3.75;;;27.90;43.20;;;;;;8464906;28;20043;-44
2022/06/22 15:18:49;;;;;;;5.28;3.30;;;27.90;43.10;;;;;;8464803;28;20047;-44
2022/06/22 15:23:03;;;;;;;5.60;2.97;;;27.90;43.20;;;;;;8464219;28;20558;-44
2022/06/22 15:27:26;;;;;;;4.32;2.95;;;27.90;43.20;;;;;;8464771;28;20035;-44
2022/06/22 15:31:45;;;;;;;5.75;3.92;;;27.90;43.20;;;;;;8464035;27;20515;-45
2022/06/22 15:35:54;;;;;;;4.85;3.20;;;27.90;43.30;;;;;;8464520;28;20482;-45
2022/06/22 15:40:16;;;;;;;3.85;2.70;;;27.90;43.20;;;;;;8429638;28;20040;-43
2022/06/22 15:44:21;;;;;;;5.15;3.20;;;27.90;43.20;;;;;;8459447;28;20036;-43
2022/06/22 15:48:47;;;;;;;4.97;3.55;;;27.90;43.20;;;;;;8463931;28;20042;-44
2022/06/22 15:52:58;;;;;;;3.83;3.40;;;27.90;43.20;;;;;;8463301;28;20039;-44
2022/06/22 15:57:21;;;;;;;5.90;3.03;;;27.80;43.20;;;;;;8463631;28;20047;-44
2022/06/22 16:01:28;;;;;;;4.45;2.75;;;27.90;43.30;;;;;;8434056;28;20400;-44
2022/06/22 16:05:41;;;;;;;4.07;3.17;;;27.80;43.20;;;;;;8457653;28;20035;-44
2022/06/22 16:09:57;;;;;;;4.88;3.05;;;27.80;43.20;;;;;;8458438;28;20039;-44
2022/06/22 16:14:15;;;;;;;6.20;3.00;;;27.80;43.20;;;;;;8452846;28;20028;-44
2022/06/22 16:18:28;;;;;;;5.95;3.20;;;27.80;43.30;;;;;;8457774;28;20063;-45
2022/06/22 16:22:35;;;;;;;6.38;3.17;;;27.80;43.20;;;;;;8461853;27;20313;-44
2022/06/22 16:26:42;;;;;;;4.18;2.95;;;27.80;43.30;;;;;;8463022;28;20488;-44
2022/06/22 16:31:10;;;;;;;6.28;3.22;;;27.70;43.20;;;;;;8462750;28;20039;-45
2022/06/22 16:35:25;;;;;;;4.28;2.63;;;27.70;43.30;;;;;;8461360;28;20066;-44
2022/06/22 16:39:41;;;;;;;5.28;3.10;;;27.70;43.80;;;;;;8462191;28;20056;-45
2022/06/22 16:43:50;;;;;;;4.95;2.88;;;27.70;43.30;;;;;;8462435;28;20475;-44
2022/06/22 16:48:15;;;;;;;5.57;3.30;;;27.70;43.30;;;;;;8460557;28;20032;-44
2022/06/22 16:52:27;;;;;;;5.32;3.05;;;27.70;43.30;;;;;;8463785;28;20038;-44
2022/06/22 16:56:35;;;;;;;6.15;3.20;;;27.70;43.30;;;;;;8468581;27;20047;-44
2022/06/22 17:01:18;;;;;;;5.07;3.35;;;27.70;43.40;;;;;;8469498;28;20042;-44
2022/06/22 17:05:50;;;;;;;3.90;3.10;;;27.70;43.40;;;;;;8330916;28;20045;-45
2022/06/22 17:10:05;;;;;;;5.53;3.17;;;27.70;43.40;;;;;;8410584;28;20039;-44
2022/06/22 17:14:19;;;;;;;5.85;3.55;;;27.60;43.30;;;;;;8467278;28;20035;-44
2022/06/22 17:18:33;;;;;;;6.45;3.13;;;27.70;43.40;;;;;;8466096;27;20044;-44
2022/06/22 17:22:46;;;;;;;5.28;3.10;;;27.60;43.40;;;;;;8467805;28;20476;-45
2022/06/22 17:26:59;;;;;;;4.65;3.20;;;27.60;43.40;;;;;;8466184;28;20047;-44
2022/06/22 17:31:40;;;;;;;4.63;2.88;;;27.60;43.40;;;;;;8468411;27;20031;-45
2022/06/22 17:36:05;;;;;;;4.78;2.97;;;27.60;43.40;;;;;;8397662;28;20032;-43
2022/06/22 17:40:20;;;;;;;6.07;2.60;;;27.60;43.40;;;;;;8464756;27;20043;-44
2022/06/22 17:44:42;;;;;;;6.10;3.17;;;27.60;43.40;;;;;;8462259;28;20039;-44
2022/06/22 17:48:53;;;;;;;4.95;2.88;;;27.60;43.50;;;;;;8467651;28;20036;-45
2022/06/22 17:52:57;;;;;;;4.50;2.80;;;27.60;43.50;;;;;;8465314;28;20130;-44
2022/06/22 17:57:22;;;;;;;5.63;3.05;;;27.60;43.50;;;;;;8467300;28;20047;-44
2022/06/22 18:01:39;;;;;;;5.75;3.17;;;27.60;43.50;;;;;;8452883;27;20135;-45
2022/06/22 18:05:40;;;;;;;6.03;3.17;;;27.60;43.50;;;;;;8463848;28;20032;-45
2022/06/22 18:09:48;;;;;;;6.50;3.00;;;27.60;43.60;;;;;;8466060;28;20032;-44
2022/06/22 18:14:12;;;;;;;5.25;2.92;;;27.50;43.50;;;;;;8463314;28;20427;-44
2022/06/22 18:18:17;;;;;;;8.63;3.33;;;27.50;43.60;;;;;;8453020;28;20047;-44
2022/06/22 18:22:20;;;;;;;6.55;3.17;;;27.50;43.60;;;;;;8463932;27;20396;-44
2022/06/22 18:26:23;;;;;;;6.22;3.20;;;27.50;43.60;;;;;;8463186;27;20153;-44
2022/06/22 18:30:44;;;;;;;4.45;2.97;;;27.50;43.70;;;;;;8466444;28;20043;-43
2022/06/22 18:34:53;;;;;;;;;;;27.50;43.70;;;;;;8463726;28;20032;-45
2022/06/22 18:43:47;;;;;;;8.80;3.50;;;27.50;43.70;;;;;;8456736;27;20039;-45
2022/06/22 18:47:55;;;;;;;6.53;3.58;;;27.40;44.00;;;;;;8454607;28;20059;-44
2022/06/22 18:52:02;;;;;;;4.95;3.28;;;27.40;44.00;;;;;;8457096;28;20063;-44
2022/06/22 18:56:06;;;;;;;6.18;3.22;;;27.40;44.20;;;;;;8459344;27;20050;-42
2022/06/22 19:00:26;;;;;;;5.00;3.33;;;27.40;44.30;;;;;;8463124;28;20435;-43
2022/06/22 19:04:31;;;;;;;7.53;3.75;;;27.40;44.20;;;;;;8464173;28;20062;-43
2022/06/22 19:08:36;;;;;;;6.40;3.25;;;27.40;44.30;;;;;;8463649;28;20470;-45
2022/06/22 19:12:48;;;;;;;4.43;3.53;;;27.40;44.20;;;;;;8432966;28;20085;-44
2022/06/22 19:17:06;;;;;;;6.30;3.45;;;27.40;44.20;;;;;;8463399;27;20053;-43
2022/06/22 19:21:25;;;;;;;7.45;3.90;;;27.40;44.20;;;;;;8463853;28;20036;-43
2022/06/22 19:25:50;;;;;;;7.65;3.35;;;27.40;44.20;;;;;;8462865;27;20067;-43
2022/06/22 19:29:51;;;;;;;5.60;3.47;;;27.40;44.20;;;;;;8457351;28;20043;-43
2022/06/22 19:34:05;;;;;;;8.00;3.80;;;27.40;44.20;;;;;;8462857;28;20032;-43
2022/06/22 19:38:17;;;;;;;5.10;3.55;;;27.40;44.20;;;;;;8462274;28;20500;-44
2022/06/22 19:42:53;;;;;;;7.90;3.50;;;27.40;44.20;;;;;;8463507;28;20387;-45
2022/06/22 19:47:19;;;;;;;9.05;3.15;;;27.40;44.20;;;;;;8463864;28;20035;-44
2022/06/22 19:51:28;;;;;;;5.78;3.20;;;27.30;44.10;;;;;;8463902;28;20051;-44
2022/06/22 19:56:00;;;;;;;4.90;3.63;;;27.40;44.20;;;;;;8463300;28;20397;-45
2022/06/22 20:00:01;;;;;;;4.28;3.30;;;27.30;44.10;;;;;;8463692;28;20047;-44
2022/06/22 20:04:26;;;;;;;5.57;3.08;;;27.30;44.20;;;;;;8463546;28;20039;-43
2022/06/22 20:08:44;;;;;;;5.97;3.35;;;27.30;44.10;;;;;;8463189;27;20023;-44
2022/06/22 20:13:11;;;;;;;6.78;3.20;;;27.30;44.10;;;;;;8463397;28;20051;-43
2022/06/22 20:17:30;;;;;;;8.63;3.72;;;27.30;44.10;;;;;;8463069;28;20448;-43
2022/06/22 20:21:38;;;;;;;5.50;3.25;;;27.30;44.00;;;;;;8463249;28;20036;-43
2022/06/22 20:25:50;;;;;;;3.70;2.63;;;27.30;44.10;;;;;;8462320;28;21049;-44
2022/06/22 20:30:13;;;;;;;5.38;2.70;;;27.30;44.10;;;;;;8463269;28;20077;-44
2022/06/22 20:34:40;;;;;;;4.32;2.53;;;27.30;44.10;;;;;;8462979;28;20515;-44
2022/06/22 20:38:41;;;;;;;5.85;3.05;;;27.30;44.10;;;;;;8462552;28;20089;-44
2022/06/22 20:42:54;;;;;;;;;;;27.30;44.10;;;;;;8462333;28;20028;-43
2022/06/22 20:47:20;;;;;;;3.25;2.33;;;27.30;44.10;;;;;;8461731;28;19919;-44
2022/06/22 20:51:31;;;;;;;4.65;2.60;;;27.20;44.00;;;;;;8462850;28;20081;-45
2022/06/22 20:55:50;;;;;;;4.40;2.87;;;27.20;44.00;;;;;;8462077;28;20039;-44
2022/06/22 21:00:05;;;;;;;5.80;2.88;;;27.20;44.00;;;;;;8462421;28;20097;-44
2022/06/22 21:04:10;;;;;;;4.78;2.72;;;27.20;44.00;;;;;;8462551;28;20028;-43
2022/06/22 21:08:18;;;;;;;4.40;2.58;;;27.20;44.00;;;;;;8461949;28;20032;-44
2022/06/22 21:12:27;;;;;;;5.10;2.95;;;27.20;44.00;;;;;;8462663;28;20435;-44
2022/06/22 21:16:38;;;;;;;6.40;3.53;;;27.20;44.00;;;;;;8461795;28;20503;-43
2022/06/22 21:20:38;;;;;;;4.82;2.75;;;27.20;44.10;;;;;;8462155;28;20115;-42
2022/06/22 21:24:48;;;;;;;;;;;27.20;44.00;;;;;;8462517;28;20040;-43
2022/06/22 21:33:12;;;;;;;6.78;3.90;;;27.20;44.00;;;;;;8462227;28;20084;-44
2022/06/22 21:37:13;;;;;;;7.85;3.30;;;27.20;44.00;;;;;;8463299;28;20052;-44
2022/06/22 21:41:13;;;;;;;;;;;27.10;44.00;;;;;;8468114;28;20070;-44
2022/06/22 21:45:19;;;;;;;5.73;2.73;;;27.10;44.00;;;;;;8467926;28;19957;-44
2022/06/22 21:49:44;;;;;;;7.32;3.30;;;27.10;44.00;;;;;;8467345;28;20038;-44
2022/06/22 21:53:54;;;;;;;7.75;3.28;;;27.10;44.00;;;;;;8467902;28;20581;-44
2022/06/22 21:58:06;;;;;;;5.10;2.90;;;27.10;44.00;;;;;;8467875;28;20123;-43
2022/06/22 22:02:23;;;;;;;4.15;3.00;;;27.10;44.00;;;;;;8466559;27;20035;-43
2022/06/22 22:06:27;;;;;;;5.72;2.83;;;27.10;44.00;;;;;;8466179;28;20127;-44
2022/06/22 22:10:57;;;;;;;6.32;2.55;;;27.00;44.00;;;;;;8466783;28;20481;-45
2022/06/22 22:15:02;;;;;;;5.13;3.28;;;27.00;43.90;;;;;;8466947;28;20396;-43
2022/06/22 22:19:05;;;;;;;3.88;3.10;;;27.00;44.00;;;;;;8466780;28;20114;-44
2022/06/22 22:23:15;;;;;;;3.67;2.55;;;27.10;44.00;;;;;;8466459;27;20039;-44
2022/06/22 22:27:30;;;;;;;5.78;3.33;;;27.00;43.90;;;;;;8466570;28;20089;-44
2022/06/22 22:31:31;;;;;;;4.65;2.55;;;27.00;44.00;;;;;;8466135;28;20136;-44